createdAt,value
2018-12-21T00:01:12.605Z,-2.10
2018-12-21T00:03:46.348Z,-2.10
2018-12-21T00:06:22.115Z,-2.10
2018-12-21T00:08:53.451Z,-2.10
2018-12-21T00:11:27.845Z,-2.10
2018-12-21T00:14:03.204Z,-2.20
2018-12-21T00:16:39.312Z,-2.30
2018-12-21T00:19:13.704Z,-2.30
2018-12-21T00:24:49.028Z,-2.40
2018-12-21T00:27:20.513Z,-2.40
2018-12-21T00:29:52.679Z,-2.50
2018-12-21T00:32:32.498Z,-2.40
2018-12-21T00:35:16.859Z,-2.40
2018-12-21T00:37:57.422Z,-2.50
2018-12-21T00:40:36.841Z,-2.40
2018-12-21T00:46:21.287Z,-2.50
2018-12-21T00:48:55.858Z,-2.50
2018-12-21T00:51:30.384Z,-2.50
2018-12-21T00:54:06.238Z,-2.50
2018-12-21T00:56:41.201Z,-2.50
2018-12-21T00:59:16.218Z,-2.50
2018-12-21T01:01:50.000Z,-2.40
2018-12-21T01:04:24.369Z,-2.30
2018-12-21T01:06:57.502Z,-2.20
2018-12-21T01:09:37.058Z,-2.20
2018-12-21T01:12:14.800Z,-2.20
2018-12-21T01:14:46.722Z,-2.20
2018-12-21T01:17:17.838Z,-2.10
2018-12-21T01:19:52.721Z,-2.10
2018-12-21T01:22:32.740Z,-2.10
2018-12-21T01:25:07.198Z,-2.00
2018-12-21T01:27:44.018Z,-2.00
2018-12-21T01:30:15.718Z,-2.00
2018-12-21T01:32:50.638Z,-2.00
2018-12-21T01:35:31.578Z,-2.10
2018-12-21T01:38:06.701Z,-2.10
2018-12-21T01:40:57.998Z,-2.20
2018-12-21T01:43:33.518Z,-2.20
2018-12-21T01:46:08.139Z,-2.20
2018-12-21T01:48:39.378Z,-2.30
2018-12-21T01:51:13.859Z,-2.40
2018-12-21T01:53:50.340Z,-2.40
2018-12-21T01:56:29.018Z,-2.40
2018-12-21T01:59:04.826Z,-2.40
2018-12-21T02:01:43.154Z,-2.40
2018-12-21T02:04:17.783Z,-2.50
2018-12-21T02:06:52.500Z,-2.50
2018-12-21T02:09:28.421Z,-2.50
2018-12-21T02:12:04.920Z,-2.60
2018-12-21T02:14:39.420Z,-2.60
2018-12-21T02:17:11.784Z,-2.60
2018-12-21T02:19:43.540Z,-2.70
2018-12-21T02:22:19.343Z,-2.70
2018-12-21T02:24:53.403Z,-2.70
2018-12-21T02:27:25.223Z,-2.70
2018-12-21T02:29:56.567Z,-2.70
2018-12-21T02:32:31.342Z,-2.70
2018-12-21T02:35:02.721Z,-2.80
2018-12-21T02:37:37.982Z,-2.70
2018-12-21T02:40:12.382Z,-2.70
2018-12-21T02:42:48.041Z,-2.70
2018-12-21T02:45:24.201Z,-2.60
2018-12-21T02:48:05.442Z,-2.60
2018-12-21T02:53:16.318Z,-2.60
2018-12-21T02:55:51.059Z,-2.50
2018-12-21T02:58:29.546Z,-2.30
2018-12-21T03:01:04.191Z,-2.30
2018-12-21T03:03:41.331Z,-2.30
2018-12-21T03:06:12.980Z,-2.30
2018-12-21T03:08:45.042Z,-2.40
2018-12-21T03:11:19.040Z,-2.30
2018-12-21T03:13:53.027Z,-2.30
2018-12-21T03:16:26.779Z,-2.20
2018-12-21T03:19:00.919Z,-2.20
2018-12-21T03:21:32.959Z,-2.30
2018-12-21T03:24:05.143Z,-2.20
2018-12-21T03:26:39.799Z,-2.20
2018-12-21T03:29:16.267Z,-2.30
2018-12-21T03:31:47.662Z,-2.40
2018-12-21T03:34:21.680Z,-2.50
2018-12-21T03:36:55.723Z,-2.70
2018-12-21T03:39:30.621Z,-2.90
2018-12-21T03:42:08.962Z,-3.10
2018-12-21T03:44:44.642Z,-3.30
2018-12-21T03:47:17.520Z,-3.40
2018-12-21T03:49:54.482Z,-3.50
2018-12-21T03:52:30.761Z,-3.60
2018-12-21T03:55:05.061Z,-3.60
2018-12-21T03:57:43.066Z,-3.60
2018-12-21T04:00:14.926Z,-3.60
2018-12-21T04:02:51.719Z,-3.60
2018-12-21T04:05:26.300Z,-3.70
2018-12-21T04:08:04.579Z,-3.70
2018-12-21T04:10:39.320Z,-3.70
2018-12-21T04:13:11.560Z,-3.80
2018-12-21T04:15:43.789Z,-3.80
2018-12-21T04:18:18.105Z,-3.80
2018-12-21T04:21:01.762Z,-3.80
2018-12-21T04:23:40.602Z,-3.90
2018-12-21T04:26:12.722Z,-3.90
2018-12-21T04:28:47.301Z,-3.80
2018-12-21T04:31:21.119Z,-3.80
2018-12-21T04:33:52.641Z,-3.80
2018-12-21T04:36:24.361Z,-3.80
2018-12-21T04:38:56.285Z,-3.90
2018-12-21T04:41:28.044Z,-4.00
2018-12-21T04:44:02.797Z,-4.00
2018-12-21T04:46:41.120Z,-4.00
2018-12-21T04:49:17.034Z,-4.00
2018-12-21T04:51:54.602Z,-4.00
2018-12-21T04:54:26.910Z,-4.00
2018-12-21T04:57:01.879Z,-4.00
2018-12-21T04:59:40.165Z,-4.10
2018-12-21T05:02:13.970Z,-4.10
2018-12-21T05:04:52.832Z,-4.00
2018-12-21T05:07:27.252Z,-3.90
2018-12-21T05:10:02.715Z,-4.00
2018-12-21T05:12:34.204Z,-4.10
2018-12-21T05:15:07.662Z,-4.10
2018-12-21T05:17:39.379Z,-4.10
2018-12-21T05:20:13.860Z,-4.00
2018-12-21T05:22:52.441Z,-4.00
2018-12-21T05:25:26.806Z,-4.00
2018-12-21T05:28:03.399Z,-4.00
2018-12-21T05:30:35.759Z,-4.00
2018-12-21T05:33:13.820Z,-3.90
2018-12-21T05:35:47.940Z,-3.90
2018-12-21T05:41:13.099Z,-3.90
2018-12-21T05:43:48.360Z,-4.00
2018-12-21T05:46:22.959Z,-4.00
2018-12-21T05:48:58.940Z,-4.00
2018-12-21T05:51:33.760Z,-4.00
2018-12-21T05:54:08.119Z,-3.90
2018-12-21T05:56:44.799Z,-3.90
2018-12-21T05:59:17.300Z,-3.90
2018-12-21T06:01:52.008Z,-4.00
2018-12-21T06:04:26.222Z,-4.00
2018-12-21T06:06:58.561Z,-3.90
2018-12-21T06:09:34.320Z,-3.90
2018-12-21T06:12:08.338Z,-3.90
2018-12-21T06:14:42.359Z,-3.90
2018-12-21T06:17:13.679Z,-3.90
2018-12-21T06:19:49.059Z,-3.90
2018-12-21T06:22:22.979Z,-3.90
2018-12-21T06:24:54.021Z,-3.90
2018-12-21T06:27:26.009Z,-3.80
2018-12-21T06:29:58.279Z,-3.80
2018-12-21T06:32:33.208Z,-3.80
2018-12-21T06:35:12.909Z,-3.70
2018-12-21T06:37:51.459Z,-3.70
2018-12-21T06:40:25.647Z,-3.70
2018-12-21T06:42:59.860Z,-3.70
2018-12-21T06:45:35.441Z,-3.60
2018-12-21T06:48:06.364Z,-3.60
2018-12-21T06:50:41.611Z,-3.60
2018-12-21T06:53:18.041Z,-3.60
2018-12-21T06:55:52.479Z,-3.60
2018-12-21T06:58:30.703Z,-3.70
2018-12-21T07:01:02.238Z,-3.70
2018-12-21T07:03:36.652Z,-3.70
2018-12-21T07:06:12.023Z,-3.70
2018-12-21T07:08:47.780Z,-3.70
2018-12-21T07:11:26.081Z,-3.60
2018-12-21T07:14:00.982Z,-3.50
2018-12-21T07:16:35.900Z,-3.40
2018-12-21T07:19:07.845Z,-3.40
2018-12-21T07:21:47.726Z,-3.50
2018-12-21T07:24:19.539Z,-3.40
2018-12-21T07:26:53.591Z,-3.30
2018-12-21T07:32:04.986Z,-3.30
2018-12-21T07:34:43.966Z,-3.30
2018-12-21T07:37:17.145Z,-3.20
2018-12-21T07:39:51.405Z,-3.20
2018-12-21T07:42:30.685Z,-3.10
2018-12-21T07:45:03.326Z,-3.10
2018-12-21T07:47:44.097Z,-3.10
2018-12-21T07:50:16.983Z,-3.10
2018-12-21T07:52:53.476Z,-3.20
2018-12-21T07:55:28.621Z,-3.20
2018-12-21T07:58:04.221Z,-3.00
2018-12-21T08:00:39.907Z,-2.90
2018-12-21T08:03:15.788Z,-2.80
2018-12-21T08:05:51.347Z,-2.60
2018-12-21T08:08:23.867Z,-2.60
2018-12-21T08:10:59.539Z,-2.50
2018-12-21T08:13:33.301Z,-2.50
2018-12-21T08:16:13.480Z,-2.40
2018-12-21T08:18:48.978Z,-2.40
2018-12-21T08:21:23.858Z,-2.20
2018-12-21T08:24:00.019Z,-2.10
2018-12-21T08:26:36.638Z,-2.00
2018-12-21T08:29:08.998Z,-1.80
2018-12-21T08:31:44.958Z,-1.80
2018-12-21T08:34:18.121Z,-1.70
2018-12-21T08:36:51.019Z,-1.60
2018-12-21T08:39:27.702Z,-1.50
2018-12-21T08:42:02.449Z,-1.50
2018-12-21T08:44:43.720Z,-1.40
2018-12-21T08:47:15.519Z,-1.40
2018-12-21T08:49:52.258Z,-1.40
2018-12-21T08:52:27.202Z,-1.30
2018-12-21T08:55:02.894Z,-1.20
2018-12-21T08:57:36.279Z,-1.20
2018-12-21T09:00:10.517Z,-1.20
2018-12-21T09:02:46.198Z,-1.20
2018-12-21T09:05:24.938Z,-1.30
2018-12-21T09:07:58.419Z,-1.30
2018-12-21T09:10:33.240Z,-1.30
2018-12-21T09:13:08.878Z,-1.20
2018-12-21T09:15:46.358Z,-1.10
2018-12-21T09:18:19.819Z,-0.90
2018-12-21T09:20:56.938Z,-0.80
2018-12-21T09:23:32.800Z,-0.80
2018-12-21T09:26:07.958Z,-0.70
2018-12-21T09:28:47.459Z,-0.60
2018-12-21T09:31:23.204Z,-0.50
2018-12-21T09:33:55.838Z,-0.50
2018-12-21T09:36:31.498Z,-0.40
2018-12-21T09:39:07.938Z,-0.30
2018-12-21T09:41:46.860Z,-0.20
2018-12-21T09:44:22.397Z,-0.10
2018-12-21T09:46:55.438Z,-0.10
2018-12-21T09:49:31.518Z,0.00
2018-12-21T09:52:06.385Z,0.00
2018-12-21T09:54:38.597Z,0.00
2018-12-21T09:57:14.098Z,-0.10
2018-12-21T09:59:46.877Z,-0.10
2018-12-21T10:02:23.082Z,-0.10
2018-12-21T10:04:58.242Z,0.00
2018-12-21T10:07:35.002Z,0.00
2018-12-21T10:10:09.703Z,0.10
2018-12-21T10:12:44.596Z,0.20
2018-12-21T10:15:26.802Z,0.30
2018-12-21T10:18:02.432Z,0.30
2018-12-21T10:20:38.607Z,0.40
2018-12-21T10:23:22.622Z,0.40
2018-12-21T10:25:57.417Z,0.50
2018-12-21T10:28:31.097Z,0.50
2018-12-21T10:31:06.238Z,0.50
2018-12-21T10:33:41.158Z,0.40
2018-12-21T10:36:17.318Z,0.40
2018-12-21T10:38:49.557Z,0.50
2018-12-21T10:41:25.645Z,0.50
2018-12-21T10:44:02.280Z,0.50
2018-12-21T10:46:41.519Z,0.50
2018-12-21T10:49:17.640Z,0.50
2018-12-21T10:51:51.947Z,0.50
2018-12-21T10:54:32.397Z,0.50
2018-12-21T10:57:09.441Z,0.60
2018-12-21T10:59:43.789Z,0.60
2018-12-21T11:02:22.023Z,0.50
2018-12-21T11:04:58.178Z,0.50
2018-12-21T11:07:34.918Z,0.50
2018-12-21T11:10:09.503Z,0.50
2018-12-21T11:12:45.758Z,0.60
2018-12-21T11:15:17.839Z,0.60
2018-12-21T11:17:52.660Z,0.70
2018-12-21T11:20:28.818Z,0.70
2018-12-21T11:23:03.697Z,0.80
2018-12-21T11:25:38.139Z,0.80
2018-12-21T11:28:12.997Z,0.70
2018-12-21T11:33:28.139Z,0.70
2018-12-21T11:36:01.238Z,0.60
2018-12-21T11:38:35.567Z,0.60
2018-12-21T11:41:13.737Z,0.60
2018-12-21T11:43:55.658Z,0.60
2018-12-21T11:46:31.740Z,0.70
2018-12-21T11:49:13.900Z,0.60
2018-12-21T11:51:48.258Z,0.70
2018-12-21T11:54:23.759Z,0.70
2018-12-21T11:57:00.138Z,0.70
2018-12-21T11:59:35.039Z,0.80
2018-12-21T12:02:06.804Z,0.80
2018-12-21T12:04:38.397Z,0.80
2018-12-21T12:07:13.599Z,0.70
2018-12-21T12:09:45.098Z,0.70
2018-12-21T12:12:20.921Z,0.70
2018-12-21T12:14:58.438Z,0.70
2018-12-21T12:17:34.460Z,0.60
2018-12-21T12:20:13.197Z,0.60
2018-12-21T12:22:47.998Z,0.50
2018-12-21T12:25:23.599Z,0.50
2018-12-21T12:28:00.018Z,0.60
2018-12-21T12:30:36.838Z,0.50
2018-12-21T12:33:08.897Z,0.50
2018-12-21T12:35:40.781Z,0.50
2018-12-21T12:38:15.357Z,0.40
2018-12-21T12:40:50.757Z,0.40
2018-12-21T12:43:25.760Z,0.40
2018-12-21T12:45:58.077Z,0.30
2018-12-21T12:48:32.856Z,0.30
2018-12-21T12:51:07.818Z,0.20
2018-12-21T12:53:41.760Z,0.20
2018-12-21T12:56:17.219Z,0.10
2018-12-21T12:58:48.947Z,0.10
2018-12-21T13:01:25.443Z,0.10
2018-12-21T13:03:59.703Z,0.10
2018-12-21T13:06:35.043Z,0.00
2018-12-21T13:09:11.421Z,0.00
2018-12-21T13:11:46.558Z,0.10
2018-12-21T13:14:21.679Z,0.00
2018-12-21T13:16:54.147Z,0.00
2018-12-21T13:19:28.585Z,0.00
2018-12-21T13:22:12.380Z,0.00
2018-12-21T13:24:44.118Z,0.00
2018-12-21T13:27:19.483Z,0.10
2018-12-21T13:29:58.399Z,0.10
2018-12-21T13:32:33.121Z,0.00
2018-12-21T13:35:09.160Z,0.00
2018-12-21T13:37:44.986Z,-0.10
2018-12-21T13:40:16.841Z,-0.10
2018-12-21T13:42:52.087Z,-0.10
2018-12-21T13:45:27.407Z,-0.10
2018-12-21T13:48:01.661Z,-0.10
2018-12-21T13:50:36.278Z,-0.10
2018-12-21T13:53:12.408Z,-0.10
2018-12-21T13:55:50.141Z,-0.10
2018-12-21T13:58:29.689Z,-0.10
2018-12-21T14:01:09.338Z,-0.10
2018-12-21T14:03:44.325Z,-0.10
2018-12-21T14:06:22.129Z,0.00
2018-12-21T14:08:53.921Z,0.00
2018-12-21T14:11:29.398Z,0.00
2018-12-21T14:14:05.425Z,0.00
2018-12-21T14:16:37.343Z,0.00
2018-12-21T14:19:15.104Z,0.10
2018-12-21T14:21:50.803Z,0.10
2018-12-21T14:27:01.163Z,0.10
2018-12-21T14:29:36.029Z,0.10
2018-12-21T14:32:11.382Z,0.00
2018-12-21T14:34:45.792Z,0.00
2018-12-21T14:37:20.928Z,0.10
2018-12-21T14:39:53.025Z,0.00
2018-12-21T14:42:28.828Z,0.00
2018-12-21T14:45:01.208Z,0.00
2018-12-21T14:47:37.430Z,0.00
2018-12-21T14:50:13.361Z,0.00
2018-12-21T14:52:47.576Z,0.00
2018-12-21T14:55:23.450Z,0.00
2018-12-21T14:57:57.342Z,-0.10
2018-12-21T15:00:31.312Z,0.00
2018-12-21T15:03:05.288Z,0.00
2018-12-21T15:05:36.524Z,0.00
2018-12-21T15:08:10.245Z,0.00
2018-12-21T15:13:16.924Z,-0.10
2018-12-21T15:15:48.785Z,-0.10
2018-12-21T15:18:23.622Z,-0.10
2018-12-21T15:20:58.599Z,-0.10
2018-12-21T15:23:34.820Z,-0.10
2018-12-21T15:29:05.982Z,0.00
2018-12-21T15:31:43.299Z,0.00
2018-12-21T15:34:18.179Z,0.00
2018-12-21T15:36:56.202Z,0.10
2018-12-21T15:39:32.125Z,0.00
2018-12-21T15:42:08.065Z,0.10
2018-12-21T15:44:40.324Z,0.10
2018-12-21T15:47:11.826Z,0.10
2018-12-21T15:49:50.907Z,0.10
2018-12-21T15:52:26.565Z,0.10
2018-12-21T15:55:02.606Z,0.10
2018-12-21T15:57:41.828Z,0.10
2018-12-21T16:00:16.797Z,0.10
2018-12-21T16:02:52.908Z,0.10
2018-12-21T16:05:24.849Z,0.10
2018-12-21T16:07:59.347Z,0.10
2018-12-21T16:10:31.288Z,0.10
2018-12-21T16:13:05.895Z,0.20
2018-12-21T16:15:41.683Z,0.20
2018-12-21T16:18:15.728Z,0.20
2018-12-21T16:23:23.849Z,0.30
2018-12-21T16:26:03.463Z,0.30
2018-12-21T16:28:33.029Z,0.40
2018-12-21T16:31:07.148Z,0.40
2018-12-21T16:33:41.189Z,0.30
2018-12-21T16:36:17.714Z,0.30
2018-12-21T16:38:51.664Z,0.30
2018-12-21T16:41:32.010Z,0.30
2018-12-21T16:44:10.484Z,0.40
2018-12-21T16:46:44.604Z,0.30
2018-12-21T16:49:33.702Z,0.30
2018-12-21T16:52:08.680Z,0.30
2018-12-21T16:54:43.864Z,0.30
2018-12-21T16:57:19.623Z,0.30
2018-12-21T16:59:50.723Z,0.40
2018-12-21T17:02:31.807Z,0.40
2018-12-21T17:05:06.513Z,0.50
2018-12-21T17:07:41.030Z,0.50
2018-12-21T17:10:16.242Z,0.60
2018-12-21T17:13:02.181Z,0.50
2018-12-21T17:15:36.859Z,0.60
2018-12-21T17:21:16.214Z,0.70
2018-12-21T17:23:48.260Z,0.70
2018-12-21T17:29:25.278Z,0.70
2018-12-21T17:32:14.401Z,0.70
2018-12-21T17:34:49.101Z,0.60
2018-12-21T17:37:20.639Z,0.60
2018-12-21T17:39:55.300Z,0.60
2018-12-21T17:42:29.120Z,0.60
2018-12-21T17:45:03.929Z,0.50
2018-12-21T17:47:39.830Z,0.60
2018-12-21T17:50:11.978Z,0.50
2018-12-21T17:52:43.420Z,0.50
2018-12-21T17:55:21.500Z,0.40
2018-12-21T17:57:56.329Z,0.40
2018-12-21T18:00:35.566Z,0.40
2018-12-21T18:03:17.760Z,0.50
2018-12-21T18:05:51.981Z,0.50
2018-12-21T18:08:26.785Z,0.60
2018-12-21T18:11:04.778Z,0.70
2018-12-21T18:13:51.698Z,0.70
2018-12-21T18:16:25.720Z,0.70
2018-12-21T18:19:01.149Z,0.70
2018-12-21T18:21:43.299Z,0.70
2018-12-21T18:24:18.899Z,0.60
2018-12-21T18:26:53.259Z,0.60
2018-12-21T18:29:29.902Z,0.60
2018-12-21T18:32:03.976Z,0.50
2018-12-21T18:34:35.545Z,0.60
2018-12-21T18:37:10.380Z,0.50
2018-12-21T18:39:46.980Z,0.50
2018-12-21T18:42:18.726Z,0.50
2018-12-21T18:44:52.838Z,0.50
2018-12-21T18:47:32.559Z,0.50
2018-12-21T18:50:08.825Z,0.60
2018-12-21T18:52:43.202Z,0.50
2018-12-21T18:55:16.904Z,0.50
2018-12-21T18:58:01.283Z,0.40
2018-12-21T19:00:38.151Z,0.30
2018-12-21T19:03:20.110Z,0.30
2018-12-21T19:05:58.597Z,0.20
2018-12-21T19:08:33.732Z,0.10
2018-12-21T19:11:05.413Z,0.10
2018-12-21T19:13:40.271Z,0.00
2018-12-21T19:16:14.962Z,0.00
2018-12-21T19:18:49.524Z,-0.10
2018-12-21T19:21:32.186Z,-0.10
2018-12-21T19:24:08.124Z,-0.10
2018-12-21T19:26:42.803Z,-0.20
2018-12-21T19:29:27.986Z,-0.20
2018-12-21T19:32:10.344Z,-0.20
2018-12-21T19:34:48.629Z,-0.20
2018-12-21T19:37:23.664Z,-0.20
2018-12-21T19:40:06.564Z,0.00
2018-12-21T19:42:42.026Z,0.00
2018-12-21T19:45:26.053Z,0.10
2018-12-21T19:48:05.239Z,0.20
2018-12-21T19:50:40.835Z,0.30
2018-12-21T19:53:22.126Z,0.40
2018-12-21T19:56:10.446Z,0.50
2018-12-21T19:58:42.347Z,0.50
2018-12-21T20:01:19.060Z,0.50
2018-12-21T20:03:59.889Z,0.60
2018-12-21T20:06:38.007Z,0.60
2018-12-21T20:09:12.078Z,0.50
2018-12-21T20:11:48.150Z,0.40
2018-12-21T20:14:22.786Z,0.40
2018-12-21T20:17:00.845Z,0.40
2018-12-21T20:19:36.003Z,0.40
2018-12-21T20:22:15.704Z,0.40
2018-12-21T20:24:51.262Z,0.40
2018-12-21T20:27:25.868Z,0.40
2018-12-21T20:29:59.889Z,0.40
2018-12-21T20:32:38.770Z,0.40
2018-12-21T20:35:13.295Z,0.40
2018-12-21T20:37:45.182Z,0.40
2018-12-21T20:40:24.385Z,0.40
2018-12-21T20:43:07.524Z,0.50
2018-12-21T20:45:42.390Z,0.50
2018-12-21T20:48:22.229Z,0.50
2018-12-21T20:50:57.044Z,0.50
2018-12-21T20:53:32.205Z,0.50
2018-12-21T20:56:06.967Z,0.50
2018-12-21T20:58:42.945Z,0.60
2018-12-21T21:01:21.991Z,0.70
2018-12-21T21:03:54.927Z,0.70
2018-12-21T21:06:34.928Z,0.60
2018-12-21T21:09:16.066Z,0.60
2018-12-21T21:11:50.959Z,0.60
2018-12-21T21:14:22.481Z,0.60
2018-12-21T21:16:57.088Z,0.60
2018-12-21T21:19:31.120Z,0.50
2018-12-21T21:22:10.635Z,0.50
2018-12-21T21:24:43.224Z,0.40
2018-12-21T21:27:15.284Z,0.40
2018-12-21T21:29:49.500Z,0.40
2018-12-21T21:32:30.180Z,0.40
2018-12-21T21:35:04.369Z,0.40
2018-12-21T21:37:38.773Z,0.40
2018-12-21T21:40:20.723Z,0.50
2018-12-21T21:42:57.719Z,0.40
2018-12-21T21:45:29.393Z,0.40
2018-12-21T21:48:10.639Z,0.40
2018-12-21T21:53:43.721Z,0.40
2018-12-21T21:56:20.763Z,0.50
2018-12-21T21:58:52.807Z,0.60
2018-12-21T22:01:31.729Z,0.70
2018-12-21T22:04:07.203Z,0.80
2018-12-21T22:06:43.885Z,0.80
2018-12-21T22:09:18.696Z,0.80
2018-12-21T22:12:00.156Z,0.90
2018-12-21T22:14:32.219Z,1.00
2018-12-21T22:17:10.419Z,1.10
2018-12-21T22:19:45.264Z,1.00
2018-12-21T22:22:21.246Z,0.80
2018-12-21T22:24:59.924Z,0.70
2018-12-21T22:27:35.722Z,0.60
2018-12-21T22:30:11.200Z,0.50
2018-12-21T22:32:45.855Z,0.30
2018-12-21T22:35:17.659Z,0.20
2018-12-21T22:37:52.341Z,0.20
2018-12-21T22:40:23.506Z,0.20
2018-12-21T22:43:00.521Z,0.20
2018-12-21T22:45:39.287Z,0.30
2018-12-21T22:48:18.020Z,0.40
2018-12-21T22:50:56.845Z,0.50
2018-12-21T22:53:35.255Z,0.50
2018-12-21T22:56:09.728Z,0.50
2018-12-21T22:58:57.409Z,0.50
2018-12-21T23:01:32.849Z,0.40
2018-12-21T23:04:08.580Z,0.40
2018-12-21T23:06:49.589Z,0.30
2018-12-21T23:09:22.317Z,0.10
2018-12-21T23:11:58.106Z,0.10
2018-12-21T23:14:32.658Z,0.00
2018-12-21T23:17:07.036Z,0.00
2018-12-21T23:19:41.927Z,0.10
2018-12-21T23:22:17.072Z,0.20
2018-12-21T23:25:04.627Z,0.20
2018-12-21T23:27:38.611Z,0.20
2018-12-21T23:30:12.916Z,0.30
2018-12-21T23:32:46.904Z,0.30
2018-12-21T23:35:28.320Z,0.30
2018-12-21T23:38:05.439Z,0.30
2018-12-21T23:40:39.742Z,0.20
2018-12-21T23:43:13.955Z,0.20
2018-12-21T23:45:49.080Z,0.10
2018-12-21T23:48:27.964Z,0.00
2018-12-21T23:51:04.377Z,0.00
2018-12-21T23:53:38.519Z,-0.10
2018-12-21T23:56:12.054Z,-0.10
2018-12-21T23:58:46.556Z,-0.20
